sensor_id;sensor_type;location;lat;lon;timestamp;P1;durP1;ratioP1;P2;durP2;ratioP2
23410;SDS011;11878;51.774;7.220;2023-09-19T00:02:10;7.63;;;1.40;;
23410;SDS011;11878;51.774;7.220;2023-09-19T00:05:12;6.27;;;1.03;;
23410;SDS011;11878;51.774;7.220;2023-09-19T00:08:15;11.27;;;1.60;;
23410;SDS011;11878;51.774;7.220;2023-09-19T00:11:17;5.37;;;1.47;;
23410;SDS011;11878;51.774;7.220;2023-09-19T00:14:19;11.10;;;1.80;;
23410;SDS011;11878;51.774;7.220;2023-09-19T00:17:21;6.43;;;1.50;;
23410;SDS011;11878;51.774;7.220;2023-09-19T00:20:23;5.40;;;1.43;;
23410;SDS011;11878;51.774;7.220;2023-09-19T00:23:25;8.27;;;1.60;;
23410;SDS011;11878;51.774;7.220;2023-09-19T00:26:28;10.27;;;1.40;;
23410;SDS011;11878;51.774;7.220;2023-09-19T00:29:32;7.17;;;1.40;;
23410;SDS011;11878;51.774;7.220;2023-09-19T00:32:34;11.33;;;1.63;;
23410;SDS011;11878;51.774;7.220;2023-09-19T00:35:36;7.93;;;1.27;;
23410;SDS011;11878;51.774;7.220;2023-09-19T00:38:38;10.00;;;1.50;;
23410;SDS011;11878;51.774;7.220;2023-09-19T00:41:40;7.37;;;1.27;;
23410;SDS011;11878;51.774;7.220;2023-09-19T00:44:43;6.60;;;1.30;;
23410;SDS011;11878;51.774;7.220;2023-09-19T00:47:46;9.23;;;1.70;;
23410;SDS011;11878;51.774;7.220;2023-09-19T00:50:51;8.93;;;1.40;;
23410;SDS011;11878;51.774;7.220;2023-09-19T00:53:55;12.90;;;2.10;;
23410;SDS011;11878;51.774;7.220;2023-09-19T00:56:57;12.73;;;2.00;;
23410;SDS011;11878;51.774;7.220;2023-09-19T01:00:00;6.60;;;1.20;;
23410;SDS011;11878;51.774;7.220;2023-09-19T01:03:09;11.00;;;1.27;;
23410;SDS011;11878;51.774;7.220;2023-09-19T01:06:14;7.60;;;1.30;;
23410;SDS011;11878;51.774;7.220;2023-09-19T01:09:17;11.63;;;2.00;;
23410;SDS011;11878;51.774;7.220;2023-09-19T01:12:22;7.03;;;1.80;;
23410;SDS011;11878;51.774;7.220;2023-09-19T01:22:29;10.77;;;1.40;;
23410;SDS011;11878;51.774;7.220;2023-09-19T01:32:30;10.87;;;2.07;;
23410;SDS011;11878;51.774;7.220;2023-09-19T01:35:34;13.97;;;1.83;;
23410;SDS011;11878;51.774;7.220;2023-09-19T01:38:35;6.93;;;1.53;;
23410;SDS011;11878;51.774;7.220;2023-09-19T01:48:12;8.67;;;1.87;;
23410;SDS011;11878;51.774;7.220;2023-09-19T01:54:56;9.23;;;1.20;;
23410;SDS011;11878;51.774;7.220;2023-09-19T01:58:05;6.40;;;1.57;;
23410;SDS011;11878;51.774;7.220;2023-09-19T02:01:10;9.97;;;1.77;;
23410;SDS011;11878;51.774;7.220;2023-09-19T02:04:17;6.17;;;1.27;;
23410;SDS011;11878;51.774;7.220;2023-09-19T02:07:19;10.00;;;1.63;;
23410;SDS011;11878;51.774;7.220;2023-09-19T02:10:24;6.93;;;1.60;;
23410;SDS011;11878;51.774;7.220;2023-09-19T02:13:26;15.33;;;1.67;;
23410;SDS011;11878;51.774;7.220;2023-09-19T02:16:29;12.23;;;2.57;;
23410;SDS011;11878;51.774;7.220;2023-09-19T02:19:31;9.87;;;1.50;;
23410;SDS011;11878;51.774;7.220;2023-09-19T02:22:35;7.93;;;1.60;;
23410;SDS011;11878;51.774;7.220;2023-09-19T02:25:38;8.90;;;1.30;;
23410;SDS011;11878;51.774;7.220;2023-09-19T02:28:41;7.73;;;1.00;;
23410;SDS011;11878;51.774;7.220;2023-09-19T02:31:43;12.00;;;1.33;;
23410;SDS011;11878;51.774;7.220;2023-09-19T02:34:48;9.10;;;1.30;;
23410;SDS011;11878;51.774;7.220;2023-09-19T02:37:53;10.87;;;1.70;;
23410;SDS011;11878;51.774;7.220;2023-09-19T02:40:55;11.30;;;1.87;;
23410;SDS011;11878;51.774;7.220;2023-09-19T02:43:57;9.20;;;1.23;;
23410;SDS011;11878;51.774;7.220;2023-09-19T02:47:01;8.07;;;1.20;;
23410;SDS011;11878;51.774;7.220;2023-09-19T02:50:04;6.33;;;1.50;;
23410;SDS011;11878;51.774;7.220;2023-09-19T02:53:06;11.50;;;1.37;;
23410;SDS011;11878;51.774;7.220;2023-09-19T02:56:08;7.77;;;1.17;;
23410;SDS011;11878;51.774;7.220;2023-09-19T02:59:11;10.10;;;1.30;;
23410;SDS011;11878;51.774;7.220;2023-09-19T03:02:13;9.00;;;1.17;;
23410;SDS011;11878;51.774;7.220;2023-09-19T03:05:15;6.57;;;1.53;;
23410;SDS011;11878;51.774;7.220;2023-09-19T03:08:18;8.20;;;1.30;;
23410;SDS011;11878;51.774;7.220;2023-09-19T03:11:22;9.03;;;1.67;;
23410;SDS011;11878;51.774;7.220;2023-09-19T03:14:27;7.07;;;1.10;;
23410;SDS011;11878;51.774;7.220;2023-09-19T03:17:33;6.60;;;1.40;;
23410;SDS011;11878;51.774;7.220;2023-09-19T03:20:35;9.90;;;1.50;;
23410;SDS011;11878;51.774;7.220;2023-09-19T03:23:37;8.00;;;1.53;;
23410;SDS011;11878;51.774;7.220;2023-09-19T03:26:40;6.20;;;1.13;;
23410;SDS011;11878;51.774;7.220;2023-09-19T03:29:42;8.77;;;1.40;;
23410;SDS011;11878;51.774;7.220;2023-09-19T03:32:45;12.63;;;2.13;;
23410;SDS011;11878;51.774;7.220;2023-09-19T03:35:52;4.43;;;1.40;;
23410;SDS011;11878;51.774;7.220;2023-09-19T03:38:55;7.57;;;1.53;;
23410;SDS011;11878;51.774;7.220;2023-09-19T03:41:57;8.20;;;1.60;;
23410;SDS011;11878;51.774;7.220;2023-09-19T03:44:59;8.97;;;1.87;;
23410;SDS011;11878;51.774;7.220;2023-09-19T03:48:09;9.73;;;1.47;;
23410;SDS011;11878;51.774;7.220;2023-09-19T03:51:11;11.07;;;1.27;;
23410;SDS011;11878;51.774;7.220;2023-09-19T03:54:13;10.43;;;1.57;;
23410;SDS011;11878;51.774;7.220;2023-09-19T03:57:15;16.03;;;1.83;;
23410;SDS011;11878;51.774;7.220;2023-09-19T04:00:22;15.13;;;1.90;;
23410;SDS011;11878;51.774;7.220;2023-09-19T04:03:28;10.33;;;1.57;;
23410;SDS011;11878;51.774;7.220;2023-09-19T04:06:37;4.80;;;1.63;;
23410;SDS011;11878;51.774;7.220;2023-09-19T04:09:39;7.00;;;1.43;;
23410;SDS011;11878;51.774;7.220;2023-09-19T04:12:41;10.80;;;1.70;;
23410;SDS011;11878;51.774;7.220;2023-09-19T04:15:56;8.53;;;1.77;;
23410;SDS011;11878;51.774;7.220;2023-09-19T04:18:58;9.20;;;1.40;;
23410;SDS011;11878;51.774;7.220;2023-09-19T04:22:00;5.43;;;1.03;;
23410;SDS011;11878;51.774;7.220;2023-09-19T04:25:02;9.03;;;1.90;;
23410;SDS011;11878;51.774;7.220;2023-09-19T04:28:04;10.07;;;1.40;;
23410;SDS011;11878;51.774;7.220;2023-09-19T04:31:07;7.40;;;1.30;;
23410;SDS011;11878;51.774;7.220;2023-09-19T04:34:09;12.60;;;1.60;;
23410;SDS011;11878;51.774;7.220;2023-09-19T04:37:11;4.60;;;1.20;;
23410;SDS011;11878;51.774;7.220;2023-09-19T04:40:16;8.43;;;1.40;;
23410;SDS011;11878;51.774;7.220;2023-09-19T04:43:19;9.60;;;1.67;;
23410;SDS011;11878;51.774;7.220;2023-09-19T04:46:21;14.30;;;1.60;;
23410;SDS011;11878;51.774;7.220;2023-09-19T04:49:23;9.63;;;1.23;;
23410;SDS011;11878;51.774;7.220;2023-09-19T04:52:25;5.30;;;1.10;;
23410;SDS011;11878;51.774;7.220;2023-09-19T04:55:27;7.43;;;1.27;;
23410;SDS011;11878;51.774;7.220;2023-09-19T04:58:29;6.97;;;1.30;;
23410;SDS011;11878;51.774;7.220;2023-09-19T05:01:31;9.57;;;1.47;;
23410;SDS011;11878;51.774;7.220;2023-09-19T05:04:33;5.03;;;1.37;;
23410;SDS011;11878;51.774;7.220;2023-09-19T05:07:36;8.97;;;1.33;;
23410;SDS011;11878;51.774;7.220;2023-09-19T05:10:38;10.73;;;1.50;;
23410;SDS011;11878;51.774;7.220;2023-09-19T05:13:40;7.20;;;1.53;;
23410;SDS011;11878;51.774;7.220;2023-09-19T05:16:43;5.67;;;1.37;;
23410;SDS011;11878;51.774;7.220;2023-09-19T05:19:45;8.93;;;1.43;;
23410;SDS011;11878;51.774;7.220;2023-09-19T05:22:47;7.07;;;1.03;;
23410;SDS011;11878;51.774;7.220;2023-09-19T05:25:49;8.43;;;1.97;;
23410;SDS011;11878;51.774;7.220;2023-09-19T05:28:52;7.77;;;1.13;;
23410;SDS011;11878;51.774;7.220;2023-09-19T05:31:54;6.27;;;1.43;;
23410;SDS011;11878;51.774;7.220;2023-09-19T05:34:56;9.50;;;1.53;;
23410;SDS011;11878;51.774;7.220;2023-09-19T05:37:58;10.17;;;1.60;;
23410;SDS011;11878;51.774;7.220;2023-09-19T05:41:00;7.20;;;1.33;;
23410;SDS011;11878;51.774;7.220;2023-09-19T05:44:03;9.13;;;1.30;;
23410;SDS011;11878;51.774;7.220;2023-09-19T05:47:06;5.47;;;1.43;;
23410;SDS011;11878;51.774;7.220;2023-09-19T05:50:10;9.37;;;1.37;;
23410;SDS011;11878;51.774;7.220;2023-09-19T05:53:12;8.00;;;1.33;;
23410;SDS011;11878;51.774;7.220;2023-09-19T05:56:16;7.97;;;1.47;;
23410;SDS011;11878;51.774;7.220;2023-09-19T05:59:20;15.80;;;2.00;;
23410;SDS011;11878;51.774;7.220;2023-09-19T06:02:22;4.93;;;1.20;;
23410;SDS011;11878;51.774;7.220;2023-09-19T06:05:24;11.97;;;1.53;;
23410;SDS011;11878;51.774;7.220;2023-09-19T06:08:33;10.00;;;1.50;;
23410;SDS011;11878;51.774;7.220;2023-09-19T06:11:35;10.23;;;1.70;;
23410;SDS011;11878;51.774;7.220;2023-09-19T06:14:37;7.87;;;1.40;;
23410;SDS011;11878;51.774;7.220;2023-09-19T06:17:39;8.10;;;1.00;;
23410;SDS011;11878;51.774;7.220;2023-09-19T06:20:41;16.57;;;1.93;;
23410;SDS011;11878;51.774;7.220;2023-09-19T06:23:46;13.23;;;1.90;;
23410;SDS011;11878;51.774;7.220;2023-09-19T06:26:48;6.93;;;1.60;;
23410;SDS011;11878;51.774;7.220;2023-09-19T06:29:51;6.37;;;1.50;;
23410;SDS011;11878;51.774;7.220;2023-09-19T06:32:56;12.50;;;1.93;;
23410;SDS011;11878;51.774;7.220;2023-09-19T06:35:59;7.27;;;1.40;;
23410;SDS011;11878;51.774;7.220;2023-09-19T06:39:01;8.20;;;1.20;;
23410;SDS011;11878;51.774;7.220;2023-09-19T06:42:05;9.63;;;1.50;;
23410;SDS011;11878;51.774;7.220;2023-09-19T06:45:07;11.10;;;1.70;;
23410;SDS011;11878;51.774;7.220;2023-09-19T06:48:13;10.70;;;2.10;;
23410;SDS011;11878;51.774;7.220;2023-09-19T06:51:14;9.43;;;1.43;;
23410;SDS011;11878;51.774;7.220;2023-09-19T06:54:17;10.30;;;1.30;;
23410;SDS011;11878;51.774;7.220;2023-09-19T06:57:19;6.50;;;1.60;;
23410;SDS011;11878;51.774;7.220;2023-09-19T07:00:21;12.00;;;1.73;;
23410;SDS011;11878;51.774;7.220;2023-09-19T07:03:24;10.20;;;1.50;;
23410;SDS011;11878;51.774;7.220;2023-09-19T07:06:28;14.93;;;1.53;;
23410;SDS011;11878;51.774;7.220;2023-09-19T07:09:29;9.60;;;1.93;;
23410;SDS011;11878;51.774;7.220;2023-09-19T07:12:31;13.53;;;1.67;;
23410;SDS011;11878;51.774;7.220;2023-09-19T07:15:38;9.63;;;1.30;;
23410;SDS011;11878;51.774;7.220;2023-09-19T07:18:41;11.07;;;1.70;;
23410;SDS011;11878;51.774;7.220;2023-09-19T07:21:45;11.40;;;1.30;;
23410;SDS011;11878;51.774;7.220;2023-09-19T07:24:49;7.37;;;1.40;;
23410;SDS011;11878;51.774;7.220;2023-09-19T07:27:50;7.30;;;1.23;;
23410;SDS011;11878;51.774;7.220;2023-09-19T07:30:52;11.30;;;1.90;;
23410;SDS011;11878;51.774;7.220;2023-09-19T07:33:55;10.47;;;1.80;;
23410;SDS011;11878;51.774;7.220;2023-09-19T07:36:56;7.07;;;1.33;;
23410;SDS011;11878;51.774;7.220;2023-09-19T07:39:59;9.83;;;1.60;;
23410;SDS011;11878;51.774;7.220;2023-09-19T07:43:02;10.47;;;1.60;;
23410;SDS011;11878;51.774;7.220;2023-09-19T07:46:06;9.03;;;2.03;;
23410;SDS011;11878;51.774;7.220;2023-09-19T07:49:10;10.53;;;1.53;;
23410;SDS011;11878;51.774;7.220;2023-09-19T07:52:13;8.10;;;1.57;;
23410;SDS011;11878;51.774;7.220;2023-09-19T07:55:17;9.20;;;1.37;;
23410;SDS011;11878;51.774;7.220;2023-09-19T07:58:21;8.20;;;1.47;;
23410;SDS011;11878;51.774;7.220;2023-09-19T08:01:24;7.93;;;1.40;;
23410;SDS011;11878;51.774;7.220;2023-09-19T08:04:28;5.13;;;1.63;;
23410;SDS011;11878;51.774;7.220;2023-09-19T08:07:32;11.53;;;1.47;;
23410;SDS011;11878;51.774;7.220;2023-09-19T08:10:34;15.70;;;1.63;;
23410;SDS011;11878;51.774;7.220;2023-09-19T08:13:37;8.47;;;1.50;;
23410;SDS011;11878;51.774;7.220;2023-09-19T08:16:48;9.73;;;1.50;;
23410;SDS011;11878;51.774;7.220;2023-09-19T08:19:50;9.00;;;1.60;;
23410;SDS011;11878;51.774;7.220;2023-09-19T08:22:54;8.00;;;1.90;;
23410;SDS011;11878;51.774;7.220;2023-09-19T08:25:56;9.60;;;1.60;;
23410;SDS011;11878;51.774;7.220;2023-09-19T08:28:59;7.50;;;1.47;;
23410;SDS011;11878;51.774;7.220;2023-09-19T08:32:07;4.67;;;1.47;;
23410;SDS011;11878;51.774;7.220;2023-09-19T08:35:10;8.13;;;1.70;;
23410;SDS011;11878;51.774;7.220;2023-09-19T08:38:12;4.03;;;1.57;;
23410;SDS011;11878;51.774;7.220;2023-09-19T08:41:16;8.47;;;2.47;;
23410;SDS011;11878;51.774;7.220;2023-09-19T08:44:18;8.17;;;1.57;;
23410;SDS011;11878;51.774;7.220;2023-09-19T08:47:34;11.37;;;1.47;;
23410;SDS011;11878;51.774;7.220;2023-09-19T08:50:51;7.57;;;1.57;;
23410;SDS011;11878;51.774;7.220;2023-09-19T08:53:58;9.83;;;1.90;;
23410;SDS011;11878;51.774;7.220;2023-09-19T08:57:07;7.00;;;1.10;;
23410;SDS011;11878;51.774;7.220;2023-09-19T09:00:12;6.60;;;1.80;;
23410;SDS011;11878;51.774;7.220;2023-09-19T09:03:16;8.07;;;1.43;;
23410;SDS011;11878;51.774;7.220;2023-09-19T09:06:21;10.97;;;1.90;;
23410;SDS011;11878;51.774;7.220;2023-09-19T09:09:24;10.40;;;1.30;;
23410;SDS011;11878;51.774;7.220;2023-09-19T09:12:26;8.53;;;1.80;;
23410;SDS011;11878;51.774;7.220;2023-09-19T09:15:28;10.43;;;1.73;;
23410;SDS011;11878;51.774;7.220;2023-09-19T09:18:31;9.20;;;1.77;;
23410;SDS011;11878;51.774;7.220;2023-09-19T09:21:33;11.00;;;1.60;;
23410;SDS011;11878;51.774;7.220;2023-09-19T09:24:53;11.83;;;1.90;;
23410;SDS011;11878;51.774;7.220;2023-09-19T09:27:59;5.47;;;1.40;;
23410;SDS011;11878;51.774;7.220;2023-09-19T09:31:02;12.97;;;2.07;;
23410;SDS011;11878;51.774;7.220;2023-09-19T09:34:09;8.67;;;1.47;;
23410;SDS011;11878;51.774;7.220;2023-09-19T09:37:16;8.67;;;1.57;;
23410;SDS011;11878;51.774;7.220;2023-09-19T09:40:20;12.13;;;1.83;;
23410;SDS011;11878;51.774;7.220;2023-09-19T09:43:38;11.37;;;1.80;;
23410;SDS011;11878;51.774;7.220;2023-09-19T09:46:44;12.10;;;1.87;;
23410;SDS011;11878;51.774;7.220;2023-09-19T09:49:56;9.57;;;2.00;;
23410;SDS011;11878;51.774;7.220;2023-09-19T09:53:30;5.57;;;2.20;;
23410;SDS011;11878;51.774;7.220;2023-09-19T09:56:33;7.60;;;1.70;;
23410;SDS011;11878;51.774;7.220;2023-09-19T09:59:46;3.60;;;1.17;;
23410;SDS011;11878;51.774;7.220;2023-09-19T10:02:55;6.83;;;1.70;;
23410;SDS011;11878;51.774;7.220;2023-09-19T10:05:57;9.27;;;1.67;;
23410;SDS011;11878;51.774;7.220;2023-09-19T10:09:00;8.43;;;1.67;;
23410;SDS011;11878;51.774;7.220;2023-09-19T10:12:13;10.40;;;1.67;;
23410;SDS011;11878;51.774;7.220;2023-09-19T10:15:18;7.47;;;1.60;;
23410;SDS011;11878;51.774;7.220;2023-09-19T10:18:26;9.37;;;1.30;;
23410;SDS011;11878;51.774;7.220;2023-09-19T10:21:30;10.07;;;1.48;;
23410;SDS011;11878;51.774;7.220;2023-09-19T10:24:33;9.73;;;1.45;;
23410;SDS011;11878;51.774;7.220;2023-09-19T10:27:46;10.05;;;1.67;;
23410;SDS011;11878;51.774;7.220;2023-09-19T10:30:48;8.60;;;1.70;;
23410;SDS011;11878;51.774;7.220;2023-09-19T10:33:51;6.75;;;1.10;;
23410;SDS011;11878;51.774;7.220;2023-09-19T10:36:56;6.18;;;1.77;;
23410;SDS011;11878;51.774;7.220;2023-09-19T10:39:59;9.60;;;1.67;;
23410;SDS011;11878;51.774;7.220;2023-09-19T10:43:04;8.85;;;1.45;;
23410;SDS011;11878;51.774;7.220;2023-09-19T10:46:07;11.18;;;1.95;;
23410;SDS011;11878;51.774;7.220;2023-09-19T10:49:12;11.63;;;2.45;;
23410;SDS011;11878;51.774;7.220;2023-09-19T10:52:15;12.27;;;1.60;;
23410;SDS011;11878;51.774;7.220;2023-09-19T10:55:22;8.05;;;1.35;;
23410;SDS011;11878;51.774;7.220;2023-09-19T10:58:26;8.77;;;1.98;;
23410;SDS011;11878;51.774;7.220;2023-09-19T11:01:43;5.25;;;1.88;;
23410;SDS011;11878;51.774;7.220;2023-09-19T11:04:55;6.07;;;1.55;;
23410;SDS011;11878;51.774;7.220;2023-09-19T11:08:13;6.65;;;1.45;;
23410;SDS011;11878;51.774;7.220;2023-09-19T11:14:47;9.70;;;1.55;;
23410;SDS011;11878;51.774;7.220;2023-09-19T11:17:49;6.87;;;1.47;;
23410;SDS011;11878;51.774;7.220;2023-09-19T11:21:24;7.50;;;1.48;;
23410;SDS011;11878;51.774;7.220;2023-09-19T11:24:35;7.73;;;1.27;;
23410;SDS011;11878;51.774;7.220;2023-09-19T11:27:46;8.33;;;1.67;;
23410;SDS011;11878;51.774;7.220;2023-09-19T11:31:42;10.43;;;1.77;;
23410;SDS011;11878;51.774;7.220;2023-09-19T11:34:46;8.90;;;1.57;;
23410;SDS011;11878;51.774;7.220;2023-09-19T11:41:36;6.10;;;1.33;;
23410;SDS011;11878;51.774;7.220;2023-09-19T11:47:27;3.80;;;0.90;;
23410;SDS011;11878;51.774;7.220;2023-09-19T11:50:30;8.87;;;1.30;;
23410;SDS011;11878;51.774;7.220;2023-09-19T11:53:34;5.73;;;1.40;;
23410;SDS011;11878;51.774;7.220;2023-09-19T11:56:40;14.23;;;1.87;;
23410;SDS011;11878;51.774;7.220;2023-09-19T11:59:42;7.35;;;1.63;;
23410;SDS011;11878;51.774;7.220;2023-09-19T12:02:46;9.90;;;1.40;;
23410;SDS011;11878;51.774;7.220;2023-09-19T12:05:50;9.13;;;1.43;;
23410;SDS011;11878;51.774;7.220;2023-09-19T12:08:53;8.23;;;1.90;;
23410;SDS011;11878;51.774;7.220;2023-09-19T12:11:55;11.33;;;2.17;;
23410;SDS011;11878;51.774;7.220;2023-09-19T12:14:58;5.15;;;1.10;;
23410;SDS011;11878;51.774;7.220;2023-09-19T12:18:01;6.03;;;1.07;;
23410;SDS011;11878;51.774;7.220;2023-09-19T12:21:05;8.23;;;1.03;;
23410;SDS011;11878;51.774;7.220;2023-09-19T12:24:11;6.07;;;1.23;;
23410;SDS011;11878;51.774;7.220;2023-09-19T12:27:20;6.68;;;1.30;;
23410;SDS011;11878;51.774;7.220;2023-09-19T12:30:27;11.02;;;1.40;;
23410;SDS011;11878;51.774;7.220;2023-09-19T12:33:29;7.55;;;1.15;;
23410;SDS011;11878;51.774;7.220;2023-09-19T12:36:33;7.93;;;1.50;;
23410;SDS011;11878;51.774;7.220;2023-09-19T12:39:37;3.72;;;1.20;;
23410;SDS011;11878;51.774;7.220;2023-09-19T12:42:44;9.73;;;1.42;;
23410;SDS011;11878;51.774;7.220;2023-09-19T12:45:48;10.43;;;1.70;;
23410;SDS011;11878;51.774;7.220;2023-09-19T12:52:21;8.10;;;1.17;;
23410;SDS011;11878;51.774;7.220;2023-09-19T12:58:29;7.03;;;1.50;;
23410;SDS011;11878;51.774;7.220;2023-09-19T13:01:32;9.35;;;1.42;;
23410;SDS011;11878;51.774;7.220;2023-09-19T13:04:38;6.97;;;1.27;;
23410;SDS011;11878;51.774;7.220;2023-09-19T13:07:43;8.38;;;1.25;;
23410;SDS011;11878;51.774;7.220;2023-09-19T13:11:02;9.25;;;1.05;;
23410;SDS011;11878;51.774;7.220;2023-09-19T13:14:21;5.72;;;0.98;;
23410;SDS011;11878;51.774;7.220;2023-09-19T13:17:48;11.07;;;1.58;;
23410;SDS011;11878;51.774;7.220;2023-09-19T13:21:06;4.97;;;1.17;;
23410;SDS011;11878;51.774;7.220;2023-09-19T13:24:22;4.70;;;1.13;;
23410;SDS011;11878;51.774;7.220;2023-09-19T13:27:28;9.40;;;1.40;;
23410;SDS011;11878;51.774;7.220;2023-09-19T13:30:30;3.00;;;0.88;;
23410;SDS011;11878;51.774;7.220;2023-09-19T13:33:35;4.05;;;1.05;;
23410;SDS011;11878;51.774;7.220;2023-09-19T13:36:44;7.50;;;1.35;;
23410;SDS011;11878;51.774;7.220;2023-09-19T13:39:49;5.30;;;1.33;;
23410;SDS011;11878;51.774;7.220;2023-09-19T13:42:51;3.20;;;0.90;;
23410;SDS011;11878;51.774;7.220;2023-09-19T13:45:55;7.53;;;1.73;;
23410;SDS011;11878;51.774;7.220;2023-09-19T13:48:59;7.13;;;1.17;;
23410;SDS011;11878;51.774;7.220;2023-09-19T13:52:03;4.70;;;1.05;;
23410;SDS011;11878;51.774;7.220;2023-09-19T13:55:06;7.65;;;1.10;;
23410;SDS011;11878;51.774;7.220;2023-09-19T13:58:08;7.28;;;1.00;;
23410;SDS011;11878;51.774;7.220;2023-09-19T14:01:12;5.03;;;1.20;;
23410;SDS011;11878;51.774;7.220;2023-09-19T14:04:14;6.20;;;1.42;;
23410;SDS011;11878;51.774;7.220;2023-09-19T14:07:18;4.63;;;1.02;;
23410;SDS011;11878;51.774;7.220;2023-09-19T14:10:21;5.88;;;0.75;;
23410;SDS011;11878;51.774;7.220;2023-09-19T14:13:23;9.98;;;1.23;;
23410;SDS011;11878;51.774;7.220;2023-09-19T14:16:26;4.18;;;1.08;;
23410;SDS011;11878;51.774;7.220;2023-09-19T14:22:56;4.57;;;1.00;;
23410;SDS011;11878;51.774;7.220;2023-09-19T14:26:00;4.88;;;0.90;;
23410;SDS011;11878;51.774;7.220;2023-09-19T14:29:03;6.10;;;1.20;;
23410;SDS011;11878;51.774;7.220;2023-09-19T14:32:05;4.93;;;0.98;;
23410;SDS011;11878;51.774;7.220;2023-09-19T14:35:07;2.92;;;0.85;;
23410;SDS011;11878;51.774;7.220;2023-09-19T14:38:11;5.27;;;0.70;;
23410;SDS011;11878;51.774;7.220;2023-09-19T14:41:13;3.38;;;0.63;;
23410;SDS011;11878;51.774;7.220;2023-09-19T14:44:15;5.10;;;1.02;;
23410;SDS011;11878;51.774;7.220;2023-09-19T14:47:17;4.72;;;1.08;;
23410;SDS011;11878;51.774;7.220;2023-09-19T14:50:20;3.23;;;0.60;;
23410;SDS011;11878;51.774;7.220;2023-09-19T14:53:23;4.22;;;0.80;;
23410;SDS011;11878;51.774;7.220;2023-09-19T14:56:26;3.97;;;0.60;;
23410;SDS011;11878;51.774;7.220;2023-09-19T14:59:32;4.32;;;0.80;;
23410;SDS011;11878;51.774;7.220;2023-09-19T15:02:38;5.88;;;0.70;;
23410;SDS011;11878;51.774;7.220;2023-09-19T15:05:42;2.83;;;0.65;;
23410;SDS011;11878;51.774;7.220;2023-09-19T15:08:45;3.80;;;0.70;;
23410;SDS011;11878;51.774;7.220;2023-09-19T15:11:49;5.10;;;0.77;;
23410;SDS011;11878;51.774;7.220;2023-09-19T15:14:52;4.73;;;0.60;;
23410;SDS011;11878;51.774;7.220;2023-09-19T15:17:54;6.50;;;0.60;;
23410;SDS011;11878;51.774;7.220;2023-09-19T15:20:56;8.43;;;0.67;;
23410;SDS011;11878;51.774;7.220;2023-09-19T15:24:01;2.23;;;0.67;;
23410;SDS011;11878;51.774;7.220;2023-09-19T15:27:04;2.17;;;0.40;;
23410;SDS011;11878;51.774;7.220;2023-09-19T15:30:06;3.73;;;0.70;;
23410;SDS011;11878;51.774;7.220;2023-09-19T15:33:08;5.78;;;0.60;;
23410;SDS011;11878;51.774;7.220;2023-09-19T15:36:11;3.23;;;0.60;;
23410;SDS011;11878;51.774;7.220;2023-09-19T15:39:15;4.20;;;0.60;;
23410;SDS011;11878;51.774;7.220;2023-09-19T15:42:18;1.63;;;0.50;;
23410;SDS011;11878;51.774;7.220;2023-09-19T15:45:20;5.40;;;0.30;;
23410;SDS011;11878;51.774;7.220;2023-09-19T15:48:22;2.47;;;0.30;;
23410;SDS011;11878;51.774;7.220;2023-09-19T15:51:24;6.23;;;0.90;;
23410;SDS011;11878;51.774;7.220;2023-09-19T15:54:26;2.40;;;0.60;;
23410;SDS011;11878;51.774;7.220;2023-09-19T15:57:29;3.15;;;0.57;;
23410;SDS011;11878;51.774;7.220;2023-09-19T16:00:32;1.07;;;0.50;;
23410;SDS011;11878;51.774;7.220;2023-09-19T16:03:38;2.43;;;0.50;;
23410;SDS011;11878;51.774;7.220;2023-09-19T16:06:41;4.37;;;0.40;;
23410;SDS011;11878;51.774;7.220;2023-09-19T16:09:43;1.90;;;0.60;;
23410;SDS011;11878;51.774;7.220;2023-09-19T16:12:45;3.73;;;0.60;;
23410;SDS011;11878;51.774;7.220;2023-09-19T16:15:47;3.20;;;0.50;;
23410;SDS011;11878;51.774;7.220;2023-09-19T16:18:50;3.53;;;0.70;;
23410;SDS011;11878;51.774;7.220;2023-09-19T16:22:12;1.35;;;0.43;;
23410;SDS011;11878;51.774;7.220;2023-09-19T16:25:15;7.78;;;0.80;;
23410;SDS011;11878;51.774;7.220;2023-09-19T16:28:17;2.38;;;0.63;;
23410;SDS011;11878;51.774;7.220;2023-09-19T16:31:19;3.73;;;0.90;;
23410;SDS011;11878;51.774;7.220;2023-09-19T16:34:21;3.03;;;0.60;;
23410;SDS011;11878;51.774;7.220;2023-09-19T16:37:24;1.95;;;0.63;;
23410;SDS011;11878;51.774;7.220;2023-09-19T16:40:26;4.60;;;0.60;;
23410;SDS011;11878;51.774;7.220;2023-09-19T16:43:28;2.57;;;0.90;;
23410;SDS011;11878;51.774;7.220;2023-09-19T16:46:30;3.23;;;0.53;;
23410;SDS011;11878;51.774;7.220;2023-09-19T16:49:32;1.93;;;0.63;;
23410;SDS011;11878;51.774;7.220;2023-09-19T16:52:34;3.30;;;0.50;;
23410;SDS011;11878;51.774;7.220;2023-09-19T16:55:38;1.90;;;0.60;;
23410;SDS011;11878;51.774;7.220;2023-09-19T16:58:44;3.33;;;0.60;;
23410;SDS011;11878;51.774;7.220;2023-09-19T17:01:47;0.67;;;0.30;;
23410;SDS011;11878;51.774;7.220;2023-09-19T17:04:49;1.37;;;0.50;;
23410;SDS011;11878;51.774;7.220;2023-09-19T17:07:52;2.33;;;0.70;;
23410;SDS011;11878;51.774;7.220;2023-09-19T17:11:06;1.60;;;0.70;;
23410;SDS011;11878;51.774;7.220;2023-09-19T17:14:14;3.87;;;0.50;;
23410;SDS011;11878;51.774;7.220;2023-09-19T17:17:16;2.53;;;0.50;;
23410;SDS011;11878;51.774;7.220;2023-09-19T17:20:18;5.97;;;0.93;;
23410;SDS011;11878;51.774;7.220;2023-09-19T17:23:21;4.50;;;0.93;;
23410;SDS011;11878;51.774;7.220;2023-09-19T17:26:23;0.93;;;0.60;;
23410;SDS011;11878;51.774;7.220;2023-09-19T17:29:26;2.07;;;0.60;;
23410;SDS011;11878;51.774;7.220;2023-09-19T17:32:29;1.53;;;0.50;;
23410;SDS011;11878;51.774;7.220;2023-09-19T17:35:31;4.40;;;0.80;;
23410;SDS011;11878;51.774;7.220;2023-09-19T17:38:33;2.13;;;0.87;;
23410;SDS011;11878;51.774;7.220;2023-09-19T17:41:35;4.77;;;0.70;;
23410;SDS011;11878;51.774;7.220;2023-09-19T17:44:37;4.30;;;0.90;;
23410;SDS011;11878;51.774;7.220;2023-09-19T17:47:40;6.83;;;1.00;;
23410;SDS011;11878;51.774;7.220;2023-09-19T17:50:43;3.20;;;0.57;;
23410;SDS011;11878;51.774;7.220;2023-09-19T17:53:45;2.77;;;0.73;;
23410;SDS011;11878;51.774;7.220;2023-09-19T17:56:48;4.90;;;1.23;;
23410;SDS011;11878;51.774;7.220;2023-09-19T17:59:50;2.27;;;0.50;;
23410;SDS011;11878;51.774;7.220;2023-09-19T18:02:52;4.03;;;0.43;;
23410;SDS011;11878;51.774;7.220;2023-09-19T18:05:56;2.43;;;0.70;;
23410;SDS011;11878;51.774;7.220;2023-09-19T18:08:57;1.93;;;0.70;;
23410;SDS011;11878;51.774;7.220;2023-09-19T18:12:00;4.00;;;0.80;;
23410;SDS011;11878;51.774;7.220;2023-09-19T18:15:02;6.70;;;0.90;;
23410;SDS011;11878;51.774;7.220;2023-09-19T18:18:04;3.40;;;0.70;;
23410;SDS011;11878;51.774;7.220;2023-09-19T18:21:10;3.10;;;1.07;;
23410;SDS011;11878;51.774;7.220;2023-09-19T18:24:13;4.93;;;1.00;;
23410;SDS011;11878;51.774;7.220;2023-09-19T18:27:15;5.67;;;0.90;;
23410;SDS011;11878;51.774;7.220;2023-09-19T18:30:18;2.93;;;0.90;;
23410;SDS011;11878;51.774;7.220;2023-09-19T18:33:20;3.67;;;0.70;;
23410;SDS011;11878;51.774;7.220;2023-09-19T18:36:22;1.73;;;0.70;;
23410;SDS011;11878;51.774;7.220;2023-09-19T18:39:24;3.10;;;0.90;;
23410;SDS011;11878;51.774;7.220;2023-09-19T18:42:27;1.80;;;0.70;;
23410;SDS011;11878;51.774;7.220;2023-09-19T18:45:30;5.47;;;1.07;;
23410;SDS011;11878;51.774;7.220;2023-09-19T18:48:42;2.53;;;0.90;;
23410;SDS011;11878;51.774;7.220;2023-09-19T18:51:48;3.60;;;1.03;;
23410;SDS011;11878;51.774;7.220;2023-09-19T18:54:50;9.80;;;1.13;;
23410;SDS011;11878;51.774;7.220;2023-09-19T18:57:52;7.75;;;1.45;;
23410;SDS011;11878;51.774;7.220;2023-09-19T19:01:00;3.20;;;0.80;;
23410;SDS011;11878;51.774;7.220;2023-09-19T19:04:03;7.07;;;1.20;;
23410;SDS011;11878;51.774;7.220;2023-09-19T19:07:07;4.33;;;0.83;;
23410;SDS011;11878;51.774;7.220;2023-09-19T19:10:12;3.80;;;0.73;;
23410;SDS011;11878;51.774;7.220;2023-09-19T19:13:15;5.33;;;1.23;;